sensor_id;sensor_type;location;lat;lon;timestamp;pressure;altitude;pressure_sealevel;temperature;humidity
68230;BME280;55048;52.220;5.160;2023-04-24T00:01:15;99676.13;;;11.85;90.30
68230;BME280;55048;52.220;5.160;2023-04-24T00:03:42;99643.06;;;11.81;90.33
68230;BME280;55048;52.220;5.160;2023-04-24T00:06:08;99682.00;;;11.66;90.16
68230;BME280;55048;52.220;5.160;2023-04-24T00:08:34;99669.16;;;11.79;89.89
68230;BME280;55048;52.220;5.160;2023-04-24T00:11:01;99436.28;;;10.26;90.21
68230;BME280;55048;52.220;5.160;2023-04-24T00:13:26;99681.22;;;11.61;90.25
68230;BME280;55048;52.220;5.160;2023-04-24T00:15:55;99647.47;;;11.41;90.39
68230;BME280;55048;52.220;5.160;2023-04-24T00:18:21;99685.25;;;11.48;91.05
68230;BME280;55048;52.220;5.160;2023-04-24T00:20:47;99708.59;;;11.82;91.46
68230;BME280;55048;52.220;5.160;2023-04-24T00:23:13;99504.00;;;10.34;91.62
68230;BME280;55048;52.220;5.160;2023-04-24T00:25:39;99751.75;;;11.79;92.25
68230;BME280;55048;52.220;5.160;2023-04-24T00:28:05;99627.81;;;11.21;91.74
68230;BME280;55048;52.220;5.160;2023-04-24T00:30:31;99690.63;;;11.17;91.75
68230;BME280;55048;52.220;5.160;2023-04-24T00:32:57;99744.88;;;11.42;92.09
68230;BME280;55048;52.220;5.160;2023-04-24T00:35:23;99617.78;;;10.83;92.91
68230;BME280;55048;52.220;5.160;2023-04-24T00:37:48;99736.59;;;11.64;92.71
68230;BME280;55048;52.220;5.160;2023-04-24T00:40:14;99735.28;;;11.46;93.25
68230;BME280;55048;52.220;5.160;2023-04-24T00:42:41;99709.50;;;11.36;93.23
68230;BME280;55048;52.220;5.160;2023-04-24T00:45:08;99648.34;;;11.01;93.33
68230;BME280;55048;52.220;5.160;2023-04-24T00:47:34;99484.06;;;9.90;92.72
68230;BME280;55048;52.220;5.160;2023-04-24T00:50:04;99513.56;;;9.89;93.04
68230;BME280;55048;52.220;5.160;2023-04-24T00:52:30;99508.75;;;9.96;93.36
68230;BME280;55048;52.220;5.160;2023-04-24T00:54:57;99656.06;;;10.92;93.25
68230;BME280;55048;52.220;5.160;2023-04-24T00:57:22;99739.03;;;11.40;93.61
68230;BME280;55048;52.220;5.160;2023-04-24T00:59:49;99711.38;;;11.20;93.66
68230;BME280;55048;52.220;5.160;2023-04-24T01:02:15;99547.00;;;10.00;93.25
68230;BME280;55048;52.220;5.160;2023-04-24T01:04:40;99560.03;;;10.02;93.20
68230;BME280;55048;52.220;5.160;2023-04-24T01:07:06;99532.44;;;10.13;92.90
68230;BME280;55048;52.220;5.160;2023-04-24T01:09:37;99701.53;;;10.70;92.81
68230;BME280;55048;52.220;5.160;2023-04-24T01:12:03;99740.38;;;11.32;92.69
68230;BME280;55048;52.220;5.160;2023-04-24T01:14:29;99729.75;;;11.12;92.45
68230;BME280;55048;52.220;5.160;2023-04-24T01:16:55;99742.53;;;11.25;92.33
68230;BME280;55048;52.220;5.160;2023-04-24T01:19:22;99752.88;;;11.37;92.94
68230;BME280;55048;52.220;5.160;2023-04-24T01:21:50;99785.63;;;11.42;92.51
68230;BME280;55048;52.220;5.160;2023-04-24T01:24:19;99465.16;;;9.51;92.03
68230;BME280;55048;52.220;5.160;2023-04-24T01:26:45;99460.09;;;9.34;91.78
68230;BME280;55048;52.220;5.160;2023-04-24T01:29:11;99780.28;;;11.58;92.16
68230;BME280;55048;52.220;5.160;2023-04-24T01:31:38;99425.59;;;9.29;92.10
68230;BME280;55048;52.220;5.160;2023-04-24T01:34:05;99778.94;;;11.60;92.20
68230;BME280;55048;52.220;5.160;2023-04-24T01:36:31;99633.94;;;10.30;92.04
68230;BME280;55048;52.220;5.160;2023-04-24T01:38:58;99797.06;;;11.53;92.04
68230;BME280;55048;52.220;5.160;2023-04-24T01:41:25;99774.97;;;11.37;92.38
68230;BME280;55048;52.220;5.160;2023-04-24T01:43:50;99788.00;;;11.64;92.83
68230;BME280;55048;52.220;5.160;2023-04-24T01:46:18;99671.22;;;10.76;92.51
68230;BME280;55048;52.220;5.160;2023-04-24T01:48:45;99789.34;;;11.62;92.69
68230;BME280;55048;52.220;5.160;2023-04-24T01:51:10;99691.44;;;10.87;92.27
68230;BME280;55048;52.220;5.160;2023-04-24T01:53:36;99790.13;;;11.62;92.74
68230;BME280;55048;52.220;5.160;2023-04-24T01:56:02;99486.38;;;9.51;92.19
68230;BME280;55048;52.220;5.160;2023-04-24T01:58:28;99783.47;;;11.19;92.49
68230;BME280;55048;52.220;5.160;2023-04-24T02:00:56;99708.72;;;11.00;92.20
68230;BME280;55048;52.220;5.160;2023-04-24T02:03:25;99766.16;;;11.47;91.44
68230;BME280;55048;52.220;5.160;2023-04-24T02:05:50;99798.38;;;11.56;91.58
68230;BME280;55048;52.220;5.160;2023-04-24T02:08:16;99548.31;;;9.97;91.15
68230;BME280;55048;52.220;5.160;2023-04-24T02:10:41;99699.69;;;11.06;91.01
68230;BME280;55048;52.220;5.160;2023-04-24T02:13:06;99520.47;;;9.95;90.59
68230;BME280;55048;52.220;5.160;2023-04-24T02:15:32;99346.09;;;8.66;90.50
68230;BME280;55048;52.220;5.160;2023-04-24T02:17:57;99692.50;;;10.86;90.90
68230;BME280;55048;52.220;5.160;2023-04-24T02:20:23;99590.09;;;10.22;90.89
68230;BME280;55048;52.220;5.160;2023-04-24T02:22:48;99781.34;;;11.52;90.93
68230;BME280;55048;52.220;5.160;2023-04-24T02:25:14;99528.94;;;9.82;90.59
68230;BME280;55048;52.220;5.160;2023-04-24T02:27:40;99811.44;;;11.47;91.04
68230;BME280;55048;52.220;5.160;2023-04-24T02:30:06;99464.03;;;9.22;90.20
68230;BME280;55048;52.220;5.160;2023-04-24T02:32:32;99530.22;;;9.64;89.86
68230;BME280;55048;52.220;5.160;2023-04-24T02:34:59;99593.75;;;10.01;89.95
68230;BME280;55048;52.220;5.160;2023-04-24T02:37:24;99572.19;;;9.77;89.85
68230;BME280;55048;52.220;5.160;2023-04-24T02:39:50;99791.22;;;11.10;90.58
68230;BME280;55048;52.220;5.160;2023-04-24T02:42:15;99806.91;;;11.17;91.18
68230;BME280;55048;52.220;5.160;2023-04-24T02:44:40;99802.38;;;11.28;90.61
68230;BME280;55048;52.220;5.160;2023-04-24T02:47:06;99759.53;;;10.98;90.21
68230;BME280;55048;52.220;5.160;2023-04-24T02:49:32;99577.78;;;9.81;90.21
68230;BME280;55048;52.220;5.160;2023-04-24T02:51:58;99791.75;;;11.17;90.56
68230;BME280;55048;52.220;5.160;2023-04-24T02:54:23;99783.50;;;11.24;90.99
68230;BME280;55048;52.220;5.160;2023-04-24T02:56:49;99757.66;;;10.84;90.79
68230;BME280;55048;52.220;5.160;2023-04-24T02:59:14;99676.81;;;10.64;90.83
68230;BME280;55048;52.220;5.160;2023-04-24T03:01:40;99680.53;;;10.63;90.83
68230;BME280;55048;52.220;5.160;2023-04-24T03:04:05;99665.63;;;10.52;91.02
68230;BME280;55048;52.220;5.160;2023-04-24T03:06:31;99753.41;;;11.08;90.70
68230;BME280;55048;52.220;5.160;2023-04-24T03:08:58;99741.47;;;11.01;90.90
68230;BME280;55048;52.220;5.160;2023-04-24T03:11:24;99818.34;;;11.22;91.00
68230;BME280;55048;52.220;5.160;2023-04-24T03:13:50;99789.06;;;11.33;91.21
68230;BME280;55048;52.220;5.160;2023-04-24T03:16:15;99482.38;;;9.38;90.63
68230;BME280;55048;52.220;5.160;2023-04-24T03:18:41;99645.38;;;10.26;90.71
68230;BME280;55048;52.220;5.160;2023-04-24T03:21:07;99762.47;;;10.97;90.90
68230;BME280;55048;52.220;5.160;2023-04-24T03:23:33;99702.03;;;10.57;90.51
68230;BME280;55048;52.220;5.160;2023-04-24T03:25:59;99688.47;;;10.58;90.80
68230;BME280;55048;52.220;5.160;2023-04-24T03:28:24;99809.84;;;11.46;90.55
68230;BME280;55048;52.220;5.160;2023-04-24T03:31:03;99753.19;;;11.10;90.39
68230;BME280;55048;52.220;5.160;2023-04-24T03:33:32;99759.03;;;11.07;90.47
68230;BME280;55048;52.220;5.160;2023-04-24T03:35:59;99821.56;;;11.30;90.82
68230;BME280;55048;52.220;5.160;2023-04-24T03:38:26;99837.25;;;11.46;90.66
68230;BME280;55048;52.220;5.160;2023-04-24T03:41:10;99768.06;;;11.21;90.45
68230;BME280;55048;52.220;5.160;2023-04-24T03:43:41;99740.63;;;11.00;90.78
68230;BME280;55048;52.220;5.160;2023-04-24T03:46:07;99794.16;;;11.29;90.80
68230;BME280;55048;52.220;5.160;2023-04-24T03:48:38;99730.53;;;10.82;90.71
68230;BME280;55048;52.220;5.160;2023-04-24T03:51:05;99657.13;;;10.40;90.21
68230;BME280;55048;52.220;5.160;2023-04-24T03:53:31;99778.97;;;11.24;90.32
68230;BME280;55048;52.220;5.160;2023-04-24T03:55:58;99635.03;;;10.29;89.75
68230;BME280;55048;52.220;5.160;2023-04-24T03:58:24;99733.22;;;10.92;89.90
68230;BME280;55048;52.220;5.160;2023-04-24T04:00:50;99699.94;;;10.59;89.81
68230;BME280;55048;52.220;5.160;2023-04-24T04:03:36;99792.81;;;11.16;89.85
68230;BME280;55048;52.220;5.160;2023-04-24T04:06:02;99793.63;;;11.22;89.95
68230;BME280;55048;52.220;5.160;2023-04-24T04:08:28;99646.44;;;10.30;90.31
68230;BME280;55048;52.220;5.160;2023-04-24T04:10:53;99728.13;;;10.80;89.83
68230;BME280;55048;52.220;5.160;2023-04-24T04:13:19;99727.59;;;10.68;90.09
68230;BME280;55048;52.220;5.160;2023-04-24T04:15:44;99549.59;;;9.64;89.70
68230;BME280;55048;52.220;5.160;2023-04-24T04:18:11;99830.88;;;11.32;90.12
68230;BME280;55048;52.220;5.160;2023-04-24T04:20:37;99836.47;;;11.31;90.14
68230;BME280;55048;52.220;5.160;2023-04-24T04:23:02;99857.53;;;11.42;90.35
68230;BME280;55048;52.220;5.160;2023-04-24T04:25:39;99561.56;;;9.72;90.08
68230;BME280;55048;52.220;5.160;2023-04-24T04:28:04;99553.00;;;9.55;89.69
68230;BME280;55048;52.220;5.160;2023-04-24T04:30:31;99765.38;;;10.90;89.88
68230;BME280;55048;52.220;5.160;2023-04-24T04:33:02;99841.53;;;11.47;89.77
68230;BME280;55048;52.220;5.160;2023-04-24T04:35:29;99840.19;;;11.40;90.00
68230;BME280;55048;52.220;5.160;2023-04-24T04:37:55;99819.94;;;11.23;89.73
68230;BME280;55048;52.220;5.160;2023-04-24T04:40:44;99845.00;;;11.43;89.62
68230;BME280;55048;52.220;5.160;2023-04-24T04:43:11;99848.19;;;11.40;89.61
68230;BME280;55048;52.220;5.160;2023-04-24T04:45:46;99831.66;;;11.28;89.52
68230;BME280;55048;52.220;5.160;2023-04-24T04:48:32;99843.09;;;11.23;89.76
68230;BME280;55048;52.220;5.160;2023-04-24T04:50:59;99802.88;;;10.89;90.10
68230;BME280;55048;52.220;5.160;2023-04-24T04:53:26;99852.94;;;11.17;90.08
68230;BME280;55048;52.220;5.160;2023-04-24T04:55:52;99828.19;;;11.02;89.98
68230;BME280;55048;52.220;5.160;2023-04-24T04:58:18;99770.53;;;10.29;91.40
68230;BME280;55048;52.220;5.160;2023-04-24T05:00:45;99616.06;;;9.32;90.92
68230;BME280;55048;52.220;5.160;2023-04-24T05:03:17;99840.09;;;10.73;90.85
68230;BME280;55048;52.220;5.160;2023-04-24T05:05:43;99778.59;;;10.50;90.70
68230;BME280;55048;52.220;5.160;2023-04-24T05:08:11;99857.69;;;11.00;90.56
68230;BME280;55048;52.220;5.160;2023-04-24T05:10:37;99790.56;;;10.52;90.41
68230;BME280;55048;52.220;5.160;2023-04-24T05:13:03;99678.06;;;9.63;90.54
68230;BME280;55048;52.220;5.160;2023-04-24T05:15:30;99909.28;;;10.89;90.34
68230;BME280;55048;52.220;5.160;2023-04-24T05:17:57;99741.75;;;10.11;89.99
68230;BME280;55048;52.220;5.160;2023-04-24T05:20:23;99849.16;;;10.83;89.75
68230;BME280;55048;52.220;5.160;2023-04-24T05:22:48;99737.50;;;10.10;89.28
68230;BME280;55048;52.220;5.160;2023-04-24T05:25:15;99879.75;;;10.90;88.86
68230;BME280;55048;52.220;5.160;2023-04-24T05:27:50;99710.00;;;9.79;88.60
68230;BME280;55048;52.220;5.160;2023-04-24T05:30:17;99912.78;;;10.99;88.57
68230;BME280;55048;52.220;5.160;2023-04-24T05:32:42;99871.75;;;10.75;88.98
68230;BME280;55048;52.220;5.160;2023-04-24T05:35:07;99947.69;;;11.13;88.86
68230;BME280;55048;52.220;5.160;2023-04-24T05:37:34;99902.81;;;10.64;88.80
68230;BME280;55048;52.220;5.160;2023-04-24T05:40:00;99935.59;;;10.80;88.70
68230;BME280;55048;52.220;5.160;2023-04-24T05:42:25;99940.19;;;11.00;88.39
68230;BME280;55048;52.220;5.160;2023-04-24T05:44:51;99768.69;;;9.82;88.70
68230;BME280;55048;52.220;5.160;2023-04-24T05:47:16;99897.25;;;10.71;88.46
68230;BME280;55048;52.220;5.160;2023-04-24T05:49:42;99869.47;;;10.41;88.25
68230;BME280;55048;52.220;5.160;2023-04-24T05:52:07;99958.03;;;11.05;88.12
68230;BME280;55048;52.220;5.160;2023-04-24T05:54:34;99903.91;;;10.68;88.18
68230;BME280;55048;52.220;5.160;2023-04-24T05:57:01;99934.53;;;10.81;88.01
68230;BME280;55048;52.220;5.160;2023-04-24T05:59:42;99955.31;;;10.94;88.22
68230;BME280;55048;52.220;5.160;2023-04-24T06:02:07;100007.56;;;11.16;87.94
68230;BME280;55048;52.220;5.160;2023-04-24T06:04:33;100000.56;;;10.94;89.53
68230;BME280;55048;52.220;5.160;2023-04-24T06:06:59;99902.13;;;9.94;91.73
68230;BME280;55048;52.220;5.160;2023-04-24T06:09:25;100038.97;;;10.66;91.04
68230;BME280;55048;52.220;5.160;2023-04-24T06:11:51;99952.63;;;10.00;92.13
68230;BME280;55048;52.220;5.160;2023-04-24T06:14:20;100013.03;;;10.14;93.06
68230;BME280;55048;52.220;5.160;2023-04-24T06:17:04;100033.41;;;10.04;94.17
68230;BME280;55048;52.220;5.160;2023-04-24T06:19:35;100033.09;;;10.00;94.11
68230;BME280;55048;52.220;5.160;2023-04-24T06:22:01;100012.31;;;9.65;95.12
68230;BME280;55048;52.220;5.160;2023-04-24T06:24:27;100062.47;;;10.15;94.59
68230;BME280;55048;52.220;5.160;2023-04-24T06:26:53;100012.53;;;9.85;94.76
68230;BME280;55048;52.220;5.160;2023-04-24T06:29:19;100075.00;;;10.20;94.89
68230;BME280;55048;52.220;5.160;2023-04-24T06:31:45;99976.50;;;9.40;94.59
68230;BME280;55048;52.220;5.160;2023-04-24T06:34:10;100021.53;;;9.57;95.42
68230;BME280;55048;52.220;5.160;2023-04-24T06:36:35;100061.78;;;9.71;95.17
68230;BME280;55048;52.220;5.160;2023-04-24T06:39:01;100037.03;;;9.65;95.00
68230;BME280;55048;52.220;5.160;2023-04-24T06:41:27;100120.97;;;10.20;94.89
68230;BME280;55048;52.220;5.160;2023-04-24T06:43:53;100056.31;;;9.83;94.26
68230;BME280;55048;52.220;5.160;2023-04-24T06:46:19;99912.78;;;8.48;94.66
68230;BME280;55048;52.220;5.160;2023-04-24T06:48:47;100086.56;;;9.82;94.04
68230;BME280;55048;52.220;5.160;2023-04-24T06:51:12;100047.41;;;9.45;93.07
68230;BME280;55048;52.220;5.160;2023-04-24T06:53:38;100099.16;;;9.69;93.55
68230;BME280;55048;52.220;5.160;2023-04-24T06:56:03;100119.44;;;9.76;93.26
68230;BME280;55048;52.220;5.160;2023-04-24T06:58:30;100156.53;;;9.92;93.28
68230;BME280;55048;52.220;5.160;2023-04-24T07:00:55;100156.16;;;10.06;93.11
68230;BME280;55048;52.220;5.160;2023-04-24T07:03:21;100171.34;;;10.10;92.53
68230;BME280;55048;52.220;5.160;2023-04-24T07:05:46;100133.84;;;9.80;93.46
68230;BME280;55048;52.220;5.160;2023-04-24T07:08:12;100139.03;;;9.96;92.29
68230;BME280;55048;52.220;5.160;2023-04-24T07:10:39;100179.31;;;10.10;92.78
68230;BME280;55048;52.220;5.160;2023-04-24T07:13:04;100131.91;;;9.75;92.21
68230;BME280;55048;52.220;5.160;2023-04-24T07:15:30;100138.44;;;9.45;92.75
68230;BME280;55048;52.220;5.160;2023-04-24T07:17:55;100178.19;;;9.79;92.45
68230;BME280;55048;52.220;5.160;2023-04-24T07:20:21;100172.97;;;9.89;92.06
68230;BME280;55048;52.220;5.160;2023-04-24T07:22:46;100168.22;;;9.91;91.74
68230;BME280;55048;52.220;5.160;2023-04-24T07:25:13;100205.13;;;9.93;92.56
68230;BME280;55048;52.220;5.160;2023-04-24T07:27:38;100153.69;;;9.55;91.57
68230;BME280;55048;52.220;5.160;2023-04-24T07:30:04;100185.69;;;9.87;91.97
68230;BME280;55048;52.220;5.160;2023-04-24T07:32:30;100158.09;;;9.66;91.94
68230;BME280;55048;52.220;5.160;2023-04-24T07:34:55;100164.69;;;9.64;91.99
68230;BME280;55048;52.220;5.160;2023-04-24T07:37:21;100170.00;;;9.64;92.07
68230;BME280;55048;52.220;5.160;2023-04-24T07:39:46;100158.72;;;9.52;92.68
68230;BME280;55048;52.220;5.160;2023-04-24T07:42:12;100207.81;;;9.71;92.72
68230;BME280;55048;52.220;5.160;2023-04-24T07:44:37;100179.75;;;9.19;93.32
68230;BME280;55048;52.220;5.160;2023-04-24T07:47:03;100250.75;;;9.85;94.62
68230;BME280;55048;52.220;5.160;2023-04-24T07:49:28;100205.25;;;9.59;93.45
68230;BME280;55048;52.220;5.160;2023-04-24T07:51:54;100267.06;;;9.93;93.16
68230;BME280;55048;52.220;5.160;2023-04-24T07:54:19;100203.66;;;9.41;93.87
68230;BME280;55048;52.220;5.160;2023-04-24T07:56:45;100239.91;;;9.69;93.32
68230;BME280;55048;52.220;5.160;2023-04-24T07:59:10;100225.53;;;9.65;92.75
68230;BME280;55048;52.220;5.160;2023-04-24T08:01:36;100264.09;;;9.90;92.80
68230;BME280;55048;52.220;5.160;2023-04-24T08:04:02;100279.63;;;9.81;94.03
68230;BME280;55048;52.220;5.160;2023-04-24T08:06:27;100288.66;;;9.80;94.33
68230;BME280;55048;52.220;5.160;2023-04-24T08:08:56;100279.56;;;9.59;94.73
68230;BME280;55048;52.220;5.160;2023-04-24T08:11:21;100284.81;;;9.54;94.41
68230;BME280;55048;52.220;5.160;2023-04-24T08:13:47;100283.94;;;9.32;96.35
68230;BME280;55048;52.220;5.160;2023-04-24T08:16:12;100282.25;;;9.42;94.15
68230;BME280;55048;52.220;5.160;2023-04-24T08:18:38;100261.81;;;9.26;94.59
68230;BME280;55048;52.220;5.160;2023-04-24T08:21:04;100185.69;;;8.93;93.76
68230;BME280;55048;52.220;5.160;2023-04-24T08:23:29;100290.94;;;9.55;93.82
68230;BME280;55048;52.220;5.160;2023-04-24T08:25:55;100207.41;;;9.07;92.85
68230;BME280;55048;52.220;5.160;2023-04-24T08:28:21;100280.00;;;9.17;92.27
68230;BME280;55048;52.220;5.160;2023-04-24T08:30:46;100258.28;;;9.20;91.66
68230;BME280;55048;52.220;5.160;2023-04-24T08:33:13;100354.63;;;9.88;90.33
68230;BME280;55048;52.220;5.160;2023-04-24T08:35:39;100356.97;;;9.68;89.29
68230;BME280;55048;52.220;5.160;2023-04-24T08:38:04;100331.88;;;9.42;89.17
68230;BME280;55048;52.220;5.160;2023-04-24T08:40:33;100265.34;;;8.98;88.58
68230;BME280;55048;52.220;5.160;2023-04-24T08:42:59;100244.13;;;8.98;87.82
68230;BME280;55048;52.220;5.160;2023-04-24T08:45:25;100382.81;;;9.89;86.17
68230;BME280;55048;52.220;5.160;2023-04-24T08:47:52;100354.97;;;9.75;85.66
68230;BME280;55048;52.220;5.160;2023-04-24T08:50:18;100348.13;;;9.79;85.01
68230;BME280;55048;52.220;5.160;2023-04-24T08:52:44;100209.53;;;8.59;84.84
68230;BME280;55048;52.220;5.160;2023-04-24T08:55:09;100369.78;;;9.71;84.65
68230;BME280;55048;52.220;5.160;2023-04-24T08:57:35;100335.84;;;9.56;84.57
68230;BME280;55048;52.220;5.160;2023-04-24T09:00:01;100394.63;;;9.99;84.89
68230;BME280;55048;52.220;5.160;2023-04-24T09:02:27;100407.97;;;10.20;83.89
68230;BME280;55048;52.220;5.160;2023-04-24T09:04:53;100055.78;;;7.80;83.95
68230;BME280;55048;52.220;5.160;2023-04-24T09:07:22;100353.59;;;9.73;83.81
68230;BME280;55048;52.220;5.160;2023-04-24T09:09:50;100415.38;;;10.02;83.12
68230;BME280;55048;52.220;5.160;2023-04-24T09:12:17;100358.59;;;9.52;82.50
68230;BME280;55048;52.220;5.160;2023-04-24T09:14:42;100283.78;;;9.22;81.33
68230;BME280;55048;52.220;5.160;2023-04-24T09:17:11;100427.47;;;10.09;80.70
68230;BME280;55048;52.220;5.160;2023-04-24T09:19:36;100396.81;;;9.85;79.35
68230;BME280;55048;52.220;5.160;2023-04-24T09:22:06;100427.72;;;10.25;79.91
68230;BME280;55048;52.220;5.160;2023-04-24T09:24:32;100444.53;;;10.30;79.65
68230;BME280;55048;52.220;5.160;2023-04-24T09:26:58;100284.59;;;9.39;78.61
68230;BME280;55048;52.220;5.160;2023-04-24T09:29:24;100408.22;;;10.19;79.06
68230;BME280;55048;52.220;5.160;2023-04-24T09:31:50;100383.56;;;10.07;77.94
68230;BME280;55048;52.220;5.160;2023-04-24T09:34:21;100413.03;;;10.22;78.42
68230;BME280;55048;52.220;5.160;2023-04-24T09:36:46;100301.63;;;9.77;78.20
68230;BME280;55048;52.220;5.160;2023-04-24T09:39:14;100407.63;;;10.51;77.90
68230;BME280;55048;52.220;5.160;2023-04-24T09:44:13;100298.34;;;9.53;75.65
68230;BME280;55048;52.220;5.160;2023-04-24T09:46:41;100384.53;;;10.17;76.52
68230;BME280;55048;52.220;5.160;2023-04-24T09:49:08;100406.91;;;10.38;76.11
68230;BME280;55048;52.220;5.160;2023-04-24T09:51:36;100335.00;;;9.89;74.61
68230;BME280;55048;52.220;5.160;2023-04-24T09:54:13;100451.22;;;10.50;72.73
68230;BME280;55048;52.220;5.160;2023-04-24T09:56:42;100432.94;;;10.36;73.16
68230;BME280;55048;52.220;5.160;2023-04-24T09:59:07;100490.22;;;10.83;73.47
68230;BME280;55048;52.220;5.160;2023-04-24T10:01:33;100375.25;;;9.98;73.15
68230;BME280;55048;52.220;5.160;2023-04-24T10:03:59;100451.63;;;10.08;74.34
68230;BME280;55048;52.220;5.160;2023-04-24T10:06:33;100497.28;;;10.55;74.34
68230;BME280;55048;52.220;5.160;2023-04-24T10:08:59;100431.16;;;10.25;74.73
68230;BME280;55048;52.220;5.160;2023-04-24T10:11:26;100436.25;;;10.10;74.97
68230;BME280;55048;52.220;5.160;2023-04-24T10:13:52;100461.06;;;10.71;74.40
68230;BME280;55048;52.220;5.160;2023-04-24T10:16:19;100437.53;;;10.63;74.17
68230;BME280;55048;52.220;5.160;2023-04-24T10:18:45;100406.56;;;10.52;73.43
68230;BME280;55048;52.220;5.160;2023-04-24T10:21:11;100460.31;;;11.19;72.70
68230;BME280;55048;52.220;5.160;2023-04-24T10:23:37;100388.66;;;10.91;72.29
68230;BME280;55048;52.220;5.160;2023-04-24T10:26:03;100327.59;;;10.74;71.20
68230;BME280;55048;52.220;5.160;2023-04-24T10:28:30;100386.59;;;10.93;70.77
68230;BME280;55048;52.220;5.160;2023-04-24T10:30:57;100488.41;;;11.32;71.82
68230;BME280;55048;52.220;5.160;2023-04-24T10:33:23;100511.94;;;11.40;72.49
68230;BME280;55048;52.220;5.160;2023-04-24T10:35:50;100454.25;;;11.02;73.01
68230;BME280;55048;52.220;5.160;2023-04-24T10:38:22;100349.09;;;10.29;73.65
68230;BME280;55048;52.220;5.160;2023-04-24T10:40:50;100469.31;;;10.91;74.03
68230;BME280;55048;52.220;5.160;2023-04-24T10:43:16;100538.75;;;11.12;75.53
68230;BME280;55048;52.220;5.160;2023-04-24T10:46:00;100549.34;;;10.68;76.82
68230;BME280;55048;52.220;5.160;2023-04-24T10:48:26;100538.44;;;10.53;79.00
68230;BME280;55048;52.220;5.160;2023-04-24T10:50:53;100431.19;;;9.75;79.44
68230;BME280;55048;52.220;5.160;2023-04-24T10:53:23;100539.66;;;10.28;79.18
68230;BME280;55048;52.220;5.160;2023-04-24T10:55:51;100529.66;;;10.18;79.50
68230;BME280;55048;52.220;5.160;2023-04-24T10:58:22;100451.22;;;9.82;80.42
68230;BME280;55048;52.220;5.160;2023-04-24T11:00:59;100551.00;;;10.57;80.50
68230;BME280;55048;52.220;5.160;2023-04-24T11:03:29;100562.31;;;11.03;80.59
68230;BME280;55048;52.220;5.160;2023-04-24T11:06:00;100371.63;;;10.43;79.36
68230;BME280;55048;52.220;5.160;2023-04-24T11:08:43;100448.63;;;11.20;79.49
68230;BME280;55048;52.220;5.160;2023-04-24T11:11:16;100533.84;;;11.47;75.70
68230;BME280;55048;52.220;5.160;2023-04-24T11:16:31;100517.22;;;11.62;70.40
68230;BME280;55048;52.220;5.160;2023-04-24T11:19:17;100552.22;;;11.98;69.93
68230;BME280;55048;52.220;5.160;2023-04-24T11:21:48;100533.81;;;11.69;68.90
68230;BME280;55048;52.220;5.160;2023-04-24T11:27:15;100562.41;;;12.33;67.69
68230;BME280;55048;52.220;5.160;2023-04-24T11:35:02;100562.00;;;12.46;65.43
68230;BME280;55048;52.220;5.160;2023-04-24T11:40:00;100449.13;;;11.71;65.15
68230;BME280;55048;52.220;5.160;2023-04-24T11:42:26;100584.50;;;12.61;64.58
68230;BME280;55048;52.220;5.160;2023-04-24T11:44:53;100590.50;;;12.78;64.60
68230;BME280;55048;52.220;5.160;2023-04-24T11:47:27;100550.16;;;12.32;64.86
68230;BME280;55048;52.220;5.160;2023-04-24T11:49:52;100567.53;;;12.08;64.04
68230;BME280;55048;52.220;5.160;2023-04-24T11:52:19;100577.16;;;12.41;65.42
68230;BME280;55048;52.220;5.160;2023-04-24T11:54:49;100586.81;;;12.20;65.30
68230;BME280;55048;52.220;5.160;2023-04-24T11:57:15;100600.81;;;12.32;64.60
68230;BME280;55048;52.220;5.160;2023-04-24T11:59:41;100578.84;;;11.93;63.00
68230;BME280;55048;52.220;5.160;2023-04-24T12:02:06;100547.47;;;11.78;62.32
68230;BME280;55048;52.220;5.160;2023-04-24T12:04:39;100624.28;;;12.03;62.46
68230;BME280;55048;52.220;5.160;2023-04-24T12:07:06;100606.19;;;11.83;62.17
68230;BME280;55048;52.220;5.160;2023-04-24T12:09:59;100551.16;;;11.72;62.55
68230;BME280;55048;52.220;5.160;2023-04-24T12:12:27;100624.19;;;11.98;62.46
68230;BME280;55048;52.220;5.160;2023-04-24T12:14:54;100583.19;;;11.77;62.36
68230;BME280;55048;52.220;5.160;2023-04-24T12:17:31;100609.56;;;12.00;62.53
68230;BME280;55048;52.220;5.160;2023-04-24T12:20:05;100633.31;;;12.29;61.96
68230;BME280;55048;52.220;5.160;2023-04-24T12:22:46;100636.53;;;12.31;62.10
68230;BME280;55048;52.220;5.160;2023-04-24T12:25:13;100567.50;;;11.81;61.83
68230;BME280;55048;52.220;5.160;2023-04-24T12:27:39;100629.97;;;12.17;61.59
68230;BME280;55048;52.220;5.160;2023-04-24T12:30:09;100522.47;;;11.30;61.53
68230;BME280;55048;52.220;5.160;2023-04-24T12:32:34;100617.69;;;11.67;62.42
68230;BME280;55048;52.220;5.160;2023-04-24T12:35:00;100604.59;;;11.21;63.31
68230;BME280;55048;52.220;5.160;2023-04-24T12:37:26;100670.28;;;11.55;64.79
68230;BME280;55048;52.220;5.160;2023-04-24T12:40:08;100682.69;;;11.66;66.55
68230;BME280;55048;52.220;5.160;2023-04-24T12:42:34;100651.13;;;11.19;68.74
68230;BME280;55048;52.220;5.160;2023-04-24T12:45:03;100602.59;;;10.56;71.57
68230;BME280;55048;52.220;5.160;2023-04-24T12:47:29;100697.38;;;11.13;72.51
68230;BME280;55048;52.220;5.160;2023-04-24T12:49:55;100642.25;;;10.75;73.76
68230;BME280;55048;52.220;5.160;2023-04-24T12:52:25;100659.50;;;10.89;73.23
68230;BME280;55048;52.220;5.160;2023-04-24T12:54:56;100517.63;;;9.99;72.62
68230;BME280;55048;52.220;5.160;2023-04-24T12:57:27;100696.91;;;11.16;71.43
68230;BME280;55048;52.220;5.160;2023-04-24T12:59:54;100604.34;;;10.67;70.09
68230;BME280;55048;52.220;5.160;2023-04-24T13:02:21;100630.22;;;10.89;69.60
68230;BME280;55048;52.220;5.160;2023-04-24T13:04:47;100689.09;;;11.48;67.23
68230;BME280;55048;52.220;5.160;2023-04-24T13:07:14;100690.97;;;11.47;66.70
68230;BME280;55048;52.220;5.160;2023-04-24T13:09:40;100542.69;;;10.87;66.91
68230;BME280;55048;52.220;5.160;2023-04-24T13:12:06;100602.72;;;11.39;64.38
68230;BME280;55048;52.220;5.160;2023-04-24T13:14:32;100693.69;;;12.13;64.40